sensor_id;sensor_type;location;lat;lon;timestamp;pressure;altitude;pressure_sealevel;temperature;humidity
63405;BME280;49541;57.840;12.306;2023-02-28T00:03:56;102223.31;;;0.23;75.06
63405;BME280;49541;57.840;12.306;2023-02-28T00:08:56;102224.34;;;-0.42;77.24
63405;BME280;49541;57.840;12.306;2023-02-28T00:13:56;102221.25;;;-0.68;78.96
63405;BME280;49541;57.840;12.306;2023-02-28T00:18:56;102219.50;;;-0.66;79.14
63405;BME280;49541;57.840;12.306;2023-02-28T00:23:56;102213.03;;;-0.42;79.20
63405;BME280;49541;57.840;12.306;2023-02-28T00:28:56;102210.97;;;-0.80;81.22
63405;BME280;49541;57.840;12.306;2023-02-28T00:33:57;102208.19;;;-0.68;82.83
63405;BME280;49541;57.840;12.306;2023-02-28T00:38:58;102215.72;;;-0.47;82.27
63405;BME280;49541;57.840;12.306;2023-02-28T00:43:58;102206.19;;;0.04;78.42
63405;BME280;49541;57.840;12.306;2023-02-28T00:48:58;102204.50;;;-0.01;77.95
63405;BME280;49541;57.840;12.306;2023-02-28T00:53:58;102199.13;;;0.09;77.43
63405;BME280;49541;57.840;12.306;2023-02-28T00:58:58;102192.78;;;0.20;73.99
63405;BME280;49541;57.840;12.306;2023-02-28T01:03:59;102196.72;;;0.88;70.03
63405;BME280;49541;57.840;12.306;2023-02-28T01:08:59;102198.22;;;0.10;72.25
63405;BME280;49541;57.840;12.306;2023-02-28T01:14:00;102195.69;;;0.05;72.52
63405;BME280;49541;57.840;12.306;2023-02-28T01:19:00;102186.34;;;-0.11;73.69
63405;BME280;49541;57.840;12.306;2023-02-28T01:24:01;102194.97;;;-0.60;76.44
63405;BME280;49541;57.840;12.306;2023-02-28T01:29:01;102188.22;;;-0.19;76.22
63405;BME280;49541;57.840;12.306;2023-02-28T01:34:01;102184.81;;;-0.25;76.62
63405;BME280;49541;57.840;12.306;2023-02-28T01:39:02;102176.97;;;0.27;73.45
63405;BME280;49541;57.840;12.306;2023-02-28T01:44:07;102188.06;;;0.41;71.64
63405;BME280;49541;57.840;12.306;2023-02-28T01:49:17;102177.00;;;-0.26;72.79
63405;BME280;49541;57.840;12.306;2023-02-28T01:54:24;102175.69;;;-0.53;74.80
63405;BME280;49541;57.840;12.306;2023-02-28T01:59:30;102178.66;;;-0.22;74.17
63405;BME280;49541;57.840;12.306;2023-02-28T02:04:34;102178.06;;;-0.38;74.66
63405;BME280;49541;57.840;12.306;2023-02-28T02:09:36;102169.28;;;-0.34;75.03
63405;BME280;49541;57.840;12.306;2023-02-28T02:19:53;102158.28;;;-0.56;74.27
63405;BME280;49541;57.840;12.306;2023-02-28T02:25:06;102154.94;;;-0.64;76.34
63405;BME280;49541;57.840;12.306;2023-02-28T02:35:43;102151.72;;;-0.86;74.64
63405;BME280;49541;57.840;12.306;2023-02-28T02:40:56;102149.00;;;-0.77;75.22
63405;BME280;49541;57.840;12.306;2023-02-28T02:45:59;102135.09;;;-0.79;75.73
63405;BME280;49541;57.840;12.306;2023-02-28T02:51:03;102133.94;;;-0.61;76.64
63405;BME280;49541;57.840;12.306;2023-02-28T02:56:11;102136.75;;;0.28;74.53
63405;BME280;49541;57.840;12.306;2023-02-28T03:01:16;102132.81;;;0.07;72.93
63405;BME280;49541;57.840;12.306;2023-02-28T03:06:27;102134.22;;;-0.25;73.99
63405;BME280;49541;57.840;12.306;2023-02-28T03:11:27;102133.13;;;-0.12;72.45
63405;BME280;49541;57.840;12.306;2023-02-28T03:26:50;102142.47;;;-1.07;76.69
63405;BME280;49541;57.840;12.306;2023-02-28T03:37:15;102133.00;;;-1.17;77.21
63405;BME280;49541;57.840;12.306;2023-02-28T03:42:24;102140.28;;;-1.41;77.29
63405;BME280;49541;57.840;12.306;2023-02-28T03:47:31;102140.16;;;-1.32;76.59
63405;BME280;49541;57.840;12.306;2023-02-28T03:52:34;102142.03;;;-0.76;74.78
63405;BME280;49541;57.840;12.306;2023-02-28T04:02:52;102152.38;;;-1.34;75.25
63405;BME280;49541;57.840;12.306;2023-02-28T04:07:52;102152.22;;;-1.21;74.67
63405;BME280;49541;57.840;12.306;2023-02-28T04:12:53;102149.94;;;-1.46;74.17
63405;BME280;49541;57.840;12.306;2023-02-28T04:17:54;102150.03;;;-1.55;73.94
63405;BME280;49541;57.840;12.306;2023-02-28T04:22:54;102150.78;;;-1.44;73.88
63405;BME280;49541;57.840;12.306;2023-02-28T04:27:54;102138.00;;;-1.70;73.64
63405;BME280;49541;57.840;12.306;2023-02-28T04:32:54;102144.66;;;-1.43;72.79
63405;BME280;49541;57.840;12.306;2023-02-28T04:37:54;102149.47;;;-0.52;68.72
63405;BME280;49541;57.840;12.306;2023-02-28T04:42:55;102148.88;;;-1.31;69.77
63405;BME280;49541;57.840;12.306;2023-02-28T04:47:55;102146.44;;;-1.47;71.04
63405;BME280;49541;57.840;12.306;2023-02-28T04:52:55;102149.16;;;-1.54;70.53
63405;BME280;49541;57.840;12.306;2023-02-28T04:57:56;102149.28;;;-1.65;71.17
63405;BME280;49541;57.840;12.306;2023-02-28T05:02:56;102138.53;;;-1.42;70.38
63405;BME280;49541;57.840;12.306;2023-02-28T05:07:56;102131.84;;;-0.96;69.80
63405;BME280;49541;57.840;12.306;2023-02-28T05:12:57;102136.53;;;-0.59;66.81
63405;BME280;49541;57.840;12.306;2023-02-28T05:17:57;102131.84;;;-0.96;67.49
63405;BME280;49541;57.840;12.306;2023-02-28T05:22:58;102126.94;;;-1.94;71.13
63405;BME280;49541;57.840;12.306;2023-02-28T05:27:59;102121.81;;;-2.01;72.74
63405;BME280;49541;57.840;12.306;2023-02-28T05:32:59;102124.47;;;-2.06;72.58
63405;BME280;49541;57.840;12.306;2023-02-28T05:37:59;102116.69;;;-2.15;71.96
63405;BME280;49541;57.840;12.306;2023-02-28T05:42:59;102117.09;;;-1.69;71.31
63405;BME280;49541;57.840;12.306;2023-02-28T05:48:00;102113.88;;;-1.94;71.26
63405;BME280;49541;57.840;12.306;2023-02-28T05:53:00;102107.50;;;-1.67;71.03
63405;BME280;49541;57.840;12.306;2023-02-28T05:58:00;102119.75;;;-1.72;71.57
63405;BME280;49541;57.840;12.306;2023-02-28T06:03:00;102097.94;;;-1.01;72.26
63405;BME280;49541;57.840;12.306;2023-02-28T06:08:02;102092.66;;;-0.99;71.53
63405;BME280;49541;57.840;12.306;2023-02-28T06:13:02;102093.59;;;-1.04;73.28
63405;BME280;49541;57.840;12.306;2023-02-28T06:18:03;102106.81;;;-0.55;71.43
63405;BME280;49541;57.840;12.306;2023-02-28T06:23:03;102104.16;;;-1.10;72.18
63405;BME280;49541;57.840;12.306;2023-02-28T06:28:03;102113.88;;;-1.21;73.24
63405;BME280;49541;57.840;12.306;2023-02-28T06:33:03;102130.38;;;-1.89;75.58
63405;BME280;49541;57.840;12.306;2023-02-28T06:38:04;102139.59;;;-2.50;78.16
63405;BME280;49541;57.840;12.306;2023-02-28T06:43:04;102137.03;;;-2.51;78.39
63405;BME280;49541;57.840;12.306;2023-02-28T06:48:04;102149.78;;;-2.16;78.73
63405;BME280;49541;57.840;12.306;2023-02-28T06:53:04;102147.84;;;-1.95;77.74
63405;BME280;49541;57.840;12.306;2023-02-28T06:58:05;102145.06;;;-1.78;75.58
63405;BME280;49541;57.840;12.306;2023-02-28T07:03:14;102159.78;;;-1.70;76.07
63405;BME280;49541;57.840;12.306;2023-02-28T07:08:15;102166.72;;;-1.70;75.79
63405;BME280;49541;57.840;12.306;2023-02-28T07:13:15;102168.31;;;-1.55;75.50
63405;BME280;49541;57.840;12.306;2023-02-28T07:18:15;102171.88;;;-1.62;75.67
63405;BME280;49541;57.840;12.306;2023-02-28T07:23:16;102175.44;;;-0.97;75.25
63405;BME280;49541;57.840;12.306;2023-02-28T07:28:16;102169.81;;;0.35;71.19
63405;BME280;49541;57.840;12.306;2023-02-28T07:33:16;102178.97;;;0.12;70.96
63405;BME280;49541;57.840;12.306;2023-02-28T07:38:16;102190.09;;;-0.84;75.37
63405;BME280;49541;57.840;12.306;2023-02-28T07:43:17;102196.19;;;-0.86;76.50
63405;BME280;49541;57.840;12.306;2023-02-28T07:48:17;102199.06;;;0.12;75.87
63405;BME280;49541;57.840;12.306;2023-02-28T07:53:17;102191.06;;;1.47;72.46
63405;BME280;49541;57.840;12.306;2023-02-28T07:58:17;102181.38;;;1.49;73.23
63405;BME280;49541;57.840;12.306;2023-02-28T08:03:18;102170.78;;;1.16;74.55
63405;BME280;49541;57.840;12.306;2023-02-28T08:08:19;102164.03;;;1.03;76.64
63405;BME280;49541;57.840;12.306;2023-02-28T08:13:19;102176.97;;;0.72;78.57
63405;BME280;49541;57.840;12.306;2023-02-28T08:18:19;102170.31;;;0.97;79.30
63405;BME280;49541;57.840;12.306;2023-02-28T08:23:19;102183.47;;;1.33;79.26
63405;BME280;49541;57.840;12.306;2023-02-28T08:28:19;102186.66;;;1.85;78.64
63405;BME280;49541;57.840;12.306;2023-02-28T08:33:19;102195.03;;;1.99;78.00
63405;BME280;49541;57.840;12.306;2023-02-28T08:38:20;102205.09;;;1.82;79.87
63405;BME280;49541;57.840;12.306;2023-02-28T08:43:20;102203.91;;;1.59;79.92
63405;BME280;49541;57.840;12.306;2023-02-28T08:48:20;102197.44;;;1.74;81.12
63405;BME280;49541;57.840;12.306;2023-02-28T08:53:21;102204.25;;;1.81;80.96
63405;BME280;49541;57.840;12.306;2023-02-28T08:58:21;102211.56;;;2.04;80.31
63405;BME280;49541;57.840;12.306;2023-02-28T09:03:21;102219.03;;;2.20;79.57
63405;BME280;49541;57.840;12.306;2023-02-28T09:08:22;102211.47;;;2.40;80.16
63405;BME280;49541;57.840;12.306;2023-02-28T09:13:22;102209.19;;;2.28;79.75
63405;BME280;49541;57.840;12.306;2023-02-28T09:18:22;102227.75;;;2.55;79.59
63405;BME280;49541;57.840;12.306;2023-02-28T09:23:23;102224.81;;;2.67;81.23
63405;BME280;49541;57.840;12.306;2023-02-28T09:28:24;102225.88;;;3.21;80.92
63405;BME280;49541;57.840;12.306;2023-02-28T09:33:24;102222.19;;;3.26;78.55
63405;BME280;49541;57.840;12.306;2023-02-28T09:38:24;102224.34;;;3.42;77.46
63405;BME280;49541;57.840;12.306;2023-02-28T09:43:25;102227.69;;;4.02;77.77
63405;BME280;49541;57.840;12.306;2023-02-28T09:48:32;102224.63;;;4.41;77.83
63405;BME280;49541;57.840;12.306;2023-02-28T09:53:36;102225.75;;;4.59;77.13
63405;BME280;49541;57.840;12.306;2023-02-28T09:58:59;102234.25;;;5.14;76.28
63405;BME280;49541;57.840;12.306;2023-02-28T10:04:03;102221.63;;;5.22;75.73
63405;BME280;49541;57.840;12.306;2023-02-28T10:09:07;102219.44;;;6.22;74.46
63405;BME280;49541;57.840;12.306;2023-02-28T10:14:14;102228.69;;;6.32;67.79
63405;BME280;49541;57.840;12.306;2023-02-28T10:24:20;102236.94;;;7.05;66.78
63405;BME280;49541;57.840;12.306;2023-02-28T10:29:23;102243.81;;;7.47;65.25
63405;BME280;49541;57.840;12.306;2023-02-28T10:34:23;102258.09;;;7.25;61.96
63405;BME280;49541;57.840;12.306;2023-02-28T10:50:08;102257.78;;;8.40;57.23
63405;BME280;49541;57.840;12.306;2023-02-28T10:55:26;102251.53;;;8.59;55.61
63405;BME280;49541;57.840;12.306;2023-02-28T11:00:26;102253.16;;;9.28;53.38
63405;BME280;49541;57.840;12.306;2023-02-28T11:05:32;102252.63;;;9.69;51.67
63405;BME280;49541;57.840;12.306;2023-02-28T11:10:33;102234.38;;;10.09;49.54
63405;BME280;49541;57.840;12.306;2023-02-28T11:15:36;102237.56;;;11.59;45.38
63405;BME280;49541;57.840;12.306;2023-02-28T11:20:36;102231.59;;;11.56;44.70
63405;BME280;49541;57.840;12.306;2023-02-28T11:25:37;102219.25;;;12.22;43.49
63405;BME280;49541;57.840;12.306;2023-02-28T11:30:38;102205.59;;;12.65;41.93
63405;BME280;49541;57.840;12.306;2023-02-28T11:35:40;102212.59;;;13.04;40.11
63405;BME280;49541;57.840;12.306;2023-02-28T11:40:47;102204.78;;;13.75;38.96
63405;BME280;49541;57.840;12.306;2023-02-28T11:45:58;102204.28;;;14.52;37.53
63405;BME280;49541;57.840;12.306;2023-02-28T11:51:13;102209.75;;;14.50;37.72
63405;BME280;49541;57.840;12.306;2023-02-28T12:01:47;102203.38;;;16.17;34.36
63405;BME280;49541;57.840;12.306;2023-02-28T12:07:00;102190.44;;;16.84;33.15
63405;BME280;49541;57.840;12.306;2023-02-28T12:12:06;102189.09;;;16.99;33.22
63405;BME280;49541;57.840;12.306;2023-02-28T12:17:21;102180.09;;;17.20;32.55
63405;BME280;49541;57.840;12.306;2023-02-28T12:27:24;102172.22;;;18.63;29.87
63405;BME280;49541;57.840;12.306;2023-02-28T12:32:31;102156.25;;;19.07;29.12
63405;BME280;49541;57.840;12.306;2023-02-28T12:42:36;102147.88;;;19.10;29.78
63405;BME280;49541;57.840;12.306;2023-02-28T12:47:38;102143.72;;;19.52;28.59
63405;BME280;49541;57.840;12.306;2023-02-28T13:13:44;102122.75;;;19.46;28.62
63405;BME280;49541;57.840;12.306;2023-02-28T13:18:45;102120.84;;;20.95;26.20
63405;BME280;49541;57.840;12.306;2023-02-28T13:28:58;102118.63;;;21.49;25.67
63405;BME280;49541;57.840;12.306;2023-02-28T13:39:00;102113.19;;;21.82;25.84
63405;BME280;49541;57.840;12.306;2023-02-28T13:59:44;102113.50;;;23.30;23.75
63405;BME280;49541;57.840;12.306;2023-02-28T14:04:54;102112.78;;;23.36;23.30
63405;BME280;49541;57.840;12.306;2023-02-28T14:10:06;102109.59;;;23.56;23.11
63405;BME280;49541;57.840;12.306;2023-02-28T14:20:44;102103.09;;;23.80;22.71
63405;BME280;49541;57.840;12.306;2023-02-28T14:36:13;102090.13;;;23.67;23.17
63405;BME280;49541;57.840;12.306;2023-02-28T14:41:20;102083.25;;;23.94;22.09
63405;BME280;49541;57.840;12.306;2023-02-28T14:46:22;102074.94;;;23.73;22.58
63405;BME280;49541;57.840;12.306;2023-02-28T14:51:23;102085.59;;;23.59;23.50
63405;BME280;49541;57.840;12.306;2023-02-28T14:56:29;102082.97;;;23.89;22.82
63405;BME280;49541;57.840;12.306;2023-02-28T15:01:31;102082.50;;;24.00;22.61
63405;BME280;49541;57.840;12.306;2023-02-28T15:06:33;102082.88;;;23.97;22.20
63405;BME280;49541;57.840;12.306;2023-02-28T15:11:33;102078.19;;;23.91;22.37
63405;BME280;49541;57.840;12.306;2023-02-28T15:16:36;102090.19;;;23.97;23.53
63405;BME280;49541;57.840;12.306;2023-02-28T15:21:39;102080.28;;;24.19;21.45
63405;BME280;49541;57.840;12.306;2023-02-28T15:26:42;102085.81;;;23.73;23.04
63405;BME280;49541;57.840;12.306;2023-02-28T15:31:47;102075.09;;;23.56;22.89
63405;BME280;49541;57.840;12.306;2023-02-28T15:36:49;102080.97;;;23.45;22.21
63405;BME280;49541;57.840;12.306;2023-02-28T15:41:49;102085.97;;;23.33;22.56
63405;BME280;49541;57.840;12.306;2023-02-28T15:52:02;102080.28;;;22.01;24.98
63405;BME280;49541;57.840;12.306;2023-02-28T15:57:03;102079.75;;;22.14;24.55
63405;BME280;49541;57.840;12.306;2023-02-28T16:07:12;102066.00;;;20.93;25.98
63405;BME280;49541;57.840;12.306;2023-02-28T16:12:12;102067.44;;;20.20;27.21
63405;BME280;49541;57.840;12.306;2023-02-28T16:17:20;102059.47;;;19.30;28.42
63405;BME280;49541;57.840;12.306;2023-02-28T16:22:21;102060.69;;;18.17;30.00
63405;BME280;49541;57.840;12.306;2023-02-28T16:27:24;102060.28;;;17.26;30.88
63405;BME280;49541;57.840;12.306;2023-02-28T16:32:26;102051.94;;;16.59;32.86
63405;BME280;49541;57.840;12.306;2023-02-28T16:37:26;102056.19;;;15.58;34.93
63405;BME280;49541;57.840;12.306;2023-02-28T16:42:27;102063.13;;;15.07;34.96
63405;BME280;49541;57.840;12.306;2023-02-28T16:47:28;102068.69;;;14.49;36.47
63405;BME280;49541;57.840;12.306;2023-02-28T16:52:28;102073.19;;;14.04;36.89
63405;BME280;49541;57.840;12.306;2023-02-28T16:57:28;102070.19;;;13.38;37.80
63405;BME280;49541;57.840;12.306;2023-02-28T17:02:28;102068.53;;;13.00;38.23
63405;BME280;49541;57.840;12.306;2023-02-28T17:07:29;102067.50;;;12.53;39.06
63405;BME280;49541;57.840;12.306;2023-02-28T17:12:29;102082.31;;;11.94;40.54
63405;BME280;49541;57.840;12.306;2023-02-28T17:17:30;102076.41;;;11.89;41.45
63405;BME280;49541;57.840;12.306;2023-02-28T17:22:31;102084.47;;;11.62;42.45
63405;BME280;49541;57.840;12.306;2023-02-28T17:27:31;102084.19;;;10.28;46.20
63405;BME280;49541;57.840;12.306;2023-02-28T17:32:32;102089.13;;;10.19;46.72
63405;BME280;49541;57.840;12.306;2023-02-28T17:37:32;102092.19;;;9.99;47.27
63405;BME280;49541;57.840;12.306;2023-02-28T17:42:32;102090.09;;;9.29;49.31
63405;BME280;49541;57.840;12.306;2023-02-28T17:47:32;102093.06;;;8.44;51.30
63405;BME280;49541;57.840;12.306;2023-02-28T17:52:32;102081.34;;;8.48;52.09
63405;BME280;49541;57.840;12.306;2023-02-28T17:57:36;102091.81;;;7.83;54.09
63405;BME280;49541;57.840;12.306;2023-02-28T18:02:36;102086.72;;;7.95;53.86
63405;BME280;49541;57.840;12.306;2023-02-28T18:07:37;102090.38;;;7.23;55.98
63405;BME280;49541;57.840;12.306;2023-02-28T18:12:38;102099.38;;;7.02;56.99
63405;BME280;49541;57.840;12.306;2023-02-28T18:17:38;102100.16;;;7.04;57.14
63405;BME280;49541;57.840;12.306;2023-02-28T18:22:39;102106.13;;;7.07;56.21
63405;BME280;49541;57.840;12.306;2023-02-28T18:27:40;102099.09;;;6.70;58.52
63405;BME280;49541;57.840;12.306;2023-02-28T18:32:52;102099.16;;;6.10;60.31
63405;BME280;49541;57.840;12.306;2023-02-28T18:37:52;102101.44;;;5.77;61.48
63405;BME280;49541;57.840;12.306;2023-02-28T18:42:53;102100.16;;;5.22;63.55
63405;BME280;49541;57.840;12.306;2023-02-28T18:47:53;102097.81;;;5.37;63.06
63405;BME280;49541;57.840;12.306;2023-02-28T18:52:53;102088.63;;;5.25;63.01
63405;BME280;49541;57.840;12.306;2023-02-28T18:57:53;102094.03;;;5.64;61.61
63405;BME280;49541;57.840;12.306;2023-02-28T19:02:53;102088.59;;;5.03;63.21
63405;BME280;49541;57.840;12.306;2023-02-28T19:07:54;102085.31;;;4.98;63.62
63405;BME280;49541;57.840;12.306;2023-02-28T19:12:54;102090.44;;;5.65;60.33
63405;BME280;49541;57.840;12.306;2023-02-28T19:17:54;102084.19;;;5.25;60.46
63405;BME280;49541;57.840;12.306;2023-02-28T19:22:55;102080.41;;;4.88;63.04
63405;BME280;49541;57.840;12.306;2023-02-28T19:27:56;102085.41;;;4.49;64.17
63405;BME280;49541;57.840;12.306;2023-02-28T19:32:56;102092.56;;;4.22;65.55
63405;BME280;49541;57.840;12.306;2023-02-28T19:37:56;102095.91;;;4.27;65.33
63405;BME280;49541;57.840;12.306;2023-02-28T19:42:58;102087.13;;;4.50;63.90
63405;BME280;49541;57.840;12.306;2023-02-28T19:47:58;102099.47;;;4.26;64.07
63405;BME280;49541;57.840;12.306;2023-02-28T19:52:58;102093.44;;;4.69;62.00
63405;BME280;49541;57.840;12.306;2023-02-28T19:58:00;102099.72;;;4.18;63.11
63405;BME280;49541;57.840;12.306;2023-02-28T20:03:00;102114.69;;;3.93;63.99
63405;BME280;49541;57.840;12.306;2023-02-28T20:08:00;102111.59;;;4.54;62.17
63405;BME280;49541;57.840;12.306;2023-02-28T20:13:00;102101.22;;;4.25;62.49
63405;BME280;49541;57.840;12.306;2023-02-28T20:18:00;102103.06;;;3.73;65.23
63405;BME280;49541;57.840;12.306;2023-02-28T20:23:01;102103.13;;;3.45;67.23
63405;BME280;49541;57.840;12.306;2023-02-28T20:28:01;102098.97;;;3.10;67.67
63405;BME280;49541;57.840;12.306;2023-02-28T20:33:01;102098.97;;;3.10;68.03
63405;BME280;49541;57.840;12.306;2023-02-28T20:38:01;102093.34;;;2.34;70.09
63405;BME280;49541;57.840;12.306;2023-02-28T20:43:02;102095.34;;;1.93;72.70
63405;BME280;49541;57.840;12.306;2023-02-28T20:48:02;102094.19;;;2.03;73.08
63405;BME280;49541;57.840;12.306;2023-02-28T20:53:02;102098.00;;;2.24;72.56
63405;BME280;49541;57.840;12.306;2023-02-28T20:58:02;102087.84;;;2.43;71.56
63405;BME280;49541;57.840;12.306;2023-02-28T21:03:02;102093.94;;;2.44;70.69
63405;BME280;49541;57.840;12.306;2023-02-28T21:08:03;102080.97;;;2.97;67.95
63405;BME280;49541;57.840;12.306;2023-02-28T21:13:03;102081.38;;;2.83;68.00
63405;BME280;49541;57.840;12.306;2023-02-28T21:18:03;102078.56;;;2.90;68.89
63405;BME280;49541;57.840;12.306;2023-02-28T21:23:03;102088.56;;;2.49;68.70
63405;BME280;49541;57.840;12.306;2023-02-28T21:28:03;102096.41;;;2.50;69.04
63405;BME280;49541;57.840;12.306;2023-02-28T21:33:03;102092.63;;;2.29;68.39
63405;BME280;49541;57.840;12.306;2023-02-28T21:38:04;102093.31;;;2.36;67.87
63405;BME280;49541;57.840;12.306;2023-02-28T21:43:04;102099.88;;;2.19;67.77
63405;BME280;49541;57.840;12.306;2023-02-28T21:48:04;102098.69;;;2.31;67.10
63405;BME280;49541;57.840;12.306;2023-02-28T21:53:04;102105.84;;;2.87;66.52
63405;BME280;49541;57.840;12.306;2023-02-28T21:58:04;102103.81;;;3.23;64.86
63405;BME280;49541;57.840;12.306;2023-02-28T22:03:04;102110.03;;;2.33;66.59
63405;BME280;49541;57.840;12.306;2023-02-28T22:08:05;102107.84;;;1.85;69.47
63405;BME280;49541;57.840;12.306;2023-02-28T22:13:05;102111.09;;;1.93;69.04
63405;BME280;49541;57.840;12.306;2023-02-28T22:18:06;102108.28;;;2.01;68.08
63405;BME280;49541;57.840;12.306;2023-02-28T22:23:06;102123.06;;;2.36;67.75
63405;BME280;49541;57.840;12.306;2023-02-28T22:28:06;102110.72;;;2.99;65.60
63405;BME280;49541;57.840;12.306;2023-02-28T22:33:06;102111.53;;;2.42;67.55
63405;BME280;49541;57.840;12.306;2023-02-28T22:38:07;102102.75;;;1.79;69.70
63405;BME280;49541;57.840;12.306;2023-02-28T22:43:09;102102.50;;;1.88;69.92
63405;BME280;49541;57.840;12.306;2023-02-28T22:48:10;102108.66;;;2.20;68.81
63405;BME280;49541;57.840;12.306;2023-02-28T22:53:10;102104.66;;;1.38;70.10
63405;BME280;49541;57.840;12.306;2023-02-28T22:58:10;102118.03;;;1.27;72.50
63405;BME280;49541;57.840;12.306;2023-02-28T23:03:10;102114.09;;;1.79;70.25
63405;BME280;49541;57.840;12.306;2023-02-28T23:08:10;102110.69;;;2.09;68.34
63405;BME280;49541;57.840;12.306;2023-02-28T23:13:11;102115.28;;;1.68;69.78
63405;BME280;49541;57.840;12.306;2023-02-28T23:18:11;102118.38;;;1.49;70.55
63405;BME280;49541;57.840;12.306;2023-02-28T23:23:12;102119.91;;;0.81;72.37
63405;BME280;49541;57.840;12.306;2023-02-28T23:28:12;102125.47;;;1.08;72.88
63405;BME280;49541;57.840;12.306;2023-02-28T23:33:12;102112.28;;;1.10;72.93
63405;BME280;49541;57.840;12.306;2023-02-28T23:38:12;102116.03;;;0.99;73.55
63405;BME280;49541;57.840;12.306;2023-02-28T23:43:12;102116.03;;;0.59;74.57
63405;BME280;49541;57.840;12.306;2023-02-28T23:48:13;102117.44;;;0.32;76.30
63405;BME280;49541;57.840;12.306;2023-02-28T23:53:13;102120.25;;;0.24;77.17
63405;BME280;49541;57.840;12.306;2023-02-28T23:58:13;102106.97;;;0.32;77.40
